Time;durP1;ratioP1;P1;durP2;ratioP2;P2;SDS_P1;SDS_P2;PMS_P1;PMS_P2;Temp;Humidity;BMP_temperature;BMP_pressure;BME280_temperature;BME280_humidity;BME280_pressure;Samples;Min_cycle;Max_cycle;Signal;HPM_P1;HPM_P2
2024/01/29 00:00:51;;;;;;;72.20;30.30;;;;;;;-128.00;-1.00;-1.00;101179;1281;1003243;-30
2024/01/29 00:03:17;;;;;;;59.20;24.70;;;;;;;-128.00;-1.00;-1.00;101144;1282;1004043;-32
2024/01/29 00:05:43;;;;;;;;;;;;;;;-128.00;-1.00;-1.00;101034;1280;1003030;-30
2024/01/29 00:08:10;;;;;;;81.40;36.10;;;;;;;-128.00;-1.00;-1.00;101084;1281;1003289;-30
2024/01/29 00:10:35;;;;;;;81.70;36.80;;;;;;;-128.00;-1.00;-1.00;101147;1284;1002578;-34
2024/01/29 00:13:01;;;;;;;89.30;40.40;;;;;;;-128.00;-1.00;-1.00;101234;1282;1004117;-31
2024/01/29 00:15:27;;;;;;;95.70;40.70;;;;;;;-128.00;-1.00;-1.00;101056;1284;1002439;-31
2024/01/29 00:17:53;;;;;;;68.10;30.20;;;;;;;-128.00;-1.00;-1.00;101075;1285;1002836;-31
2024/01/29 00:20:18;;;;;;;67.60;31.80;;;;;;;-128.00;-1.00;-1.00;100954;1286;1003146;-30
2024/01/29 00:22:44;;;;;;;66.70;29.70;;;;;;;-128.00;-1.00;-1.00;101061;1282;1002855;-30
2024/01/29 00:25:10;;;;;;;68.10;28.30;;;;;;;-128.00;-1.00;-1.00;101142;1284;1002750;-31
2024/01/29 00:27:36;;;;;;;;;;;;;;;-128.00;-1.00;-1.00;101126;1281;1002876;-30
2024/01/29 00:30:01;;;;;;;60.20;26.30;;;;;;;-128.00;-1.00;-1.00;101054;1285;1002881;-30
2024/01/29 00:32:28;;;;;;;56.30;25.70;;;;;;;-128.00;-1.00;-1.00;101132;1284;1002760;-31
2024/01/29 00:34:54;;;;;;;66.10;27.90;;;;;;;-128.00;-1.00;-1.00;100949;1282;1002089;-31
2024/01/29 00:37:22;;;;;;;53.60;23.80;;;;;;;-128.00;-1.00;-1.00;101048;1281;1004429;-31
2024/01/29 00:39:48;;;;;;;56.20;24.10;;;;;;;-128.00;-1.00;-1.00;101100;1284;1012607;-35
2024/01/29 00:42:14;;;;;;;57.20;22.90;;;;;;;-128.00;-1.00;-1.00;101163;1284;1002654;-33
2024/01/29 00:44:40;;;;;;;57.90;23.80;;;;;;;-128.00;-1.00;-1.00;101154;1282;1004115;-32
2024/01/29 00:47:06;;;;;;;61.90;23.40;;;;;;;-128.00;-1.00;-1.00;101000;1282;1002902;-32
2024/01/29 00:49:32;;;;;;;57.50;21.80;;;;;;;-128.00;-1.00;-1.00;101101;1283;1004292;-30
2024/01/29 00:51:58;;;;;;;61.00;23.20;;;;;;;-128.00;-1.00;-1.00;101127;1280;1002916;-30
2024/01/29 00:54:24;;;;;;;52.00;23.20;;;;;;;-128.00;-1.00;-1.00;101087;1284;1002645;-31
2024/01/29 00:56:50;;;;;;;59.70;22.90;;;;;;;-128.00;-1.00;-1.00;101116;1284;1002816;-30
2024/01/29 00:59:15;;;;;;;51.50;22.10;;;;;;;-128.00;-1.00;-1.00;101085;1285;1003584;-32
2024/01/29 01:01:41;;;;;;;58.00;22.70;;;;;;;-128.00;-1.00;-1.00;101021;1285;1003766;-32
2024/01/29 01:04:07;;;;;;;48.80;21.40;;;;;;;-128.00;-1.00;-1.00;101073;1284;1003362;-30
2024/01/29 01:06:33;;;;;;;61.50;23.20;;;;;;;-128.00;-1.00;-1.00;101062;1282;1002663;-29
2024/01/29 01:08:59;;;;;;;56.10;23.00;;;;;;;-128.00;-1.00;-1.00;101166;1284;1003730;-33
2024/01/29 01:11:24;;;;;;;57.10;24.20;;;;;;;-128.00;-1.00;-1.00;101058;1282;1002577;-31
2024/01/29 01:13:52;;;;;;;49.30;20.70;;;;;;;-128.00;-1.00;-1.00;101014;1282;1003624;-30
2024/01/29 01:16:17;;;;;;;55.90;24.60;;;;;;;-128.00;-1.00;-1.00;101016;1285;1002952;-30
2024/01/29 01:18:43;;;;;;;56.10;21.00;;;;;;;-128.00;-1.00;-1.00;100992;1281;1002872;-31
2024/01/29 01:21:08;;;;;;;54.90;22.00;;;;;;;-128.00;-1.00;-1.00;101060;1282;1002978;-31
2024/01/29 01:23:34;;;;;;;61.30;24.30;;;;;;;-128.00;-1.00;-1.00;101024;1284;1003047;-30
2024/01/29 01:26:00;;;;;;;50.50;21.20;;;;;;;-128.00;-1.00;-1.00;101100;1284;1002725;-31
2024/01/29 01:28:25;;;;;;;60.10;21.40;;;;;;;-128.00;-1.00;-1.00;101025;1282;1002503;-31
2024/01/29 01:30:51;;;;;;;58.90;23.50;;;;;;;-128.00;-1.00;-1.00;101002;1284;1002932;-33
2024/01/29 01:33:16;;;;;;;58.60;23.20;;;;;;;-128.00;-1.00;-1.00;101104;1285;1002972;-33
2024/01/29 01:35:42;;;;;;;66.10;24.50;;;;;;;-128.00;-1.00;-1.00;101131;1283;1004294;-31
2024/01/29 01:38:08;;;;;;;66.30;24.40;;;;;;;-128.00;-1.00;-1.00;101150;1284;1002549;-33
2024/01/29 01:40:33;;;;;;;56.20;22.70;;;;;;;-128.00;-1.00;-1.00;101069;1284;1002895;-32
2024/01/29 01:42:59;;;;;;;54.90;23.70;;;;;;;-128.00;-1.00;-1.00;100911;1283;1004274;-32
2024/01/29 01:45:24;;;;;;;65.30;26.70;;;;;;;-128.00;-1.00;-1.00;101175;1282;1003001;-31
2024/01/29 01:47:50;;;;;;;58.40;24.10;;;;;;;-128.00;-1.00;-1.00;101072;1282;1002871;-30
2024/01/29 01:50:16;;;;;;;61.10;25.50;;;;;;;-128.00;-1.00;-1.00;101045;1280;1002812;-32
2024/01/29 02:33:07;;;;;;;83.00;33.70;;;;;;;-1.28;100.00;101270.79;103761;1285;612076;-33
2024/01/29 02:35:32;;;;;;;95.20;34.30;;;;;;;-1.06;100.00;101271.52;103823;1287;93818;-30
2024/01/29 02:37:58;;;;;;;90.70;34.90;;;;;;;-1.06;100.00;101274.67;103744;1286;60463;-30
2024/01/29 02:40:24;;;;;;;84.40;33.00;;;;;;;-1.01;100.00;101268.09;103889;1300;60911;-33
2024/01/29 02:42:49;;;;;;;76.60;30.00;;;;;;;-0.96;100.00;101269.04;103894;1286;60459;-32
2024/01/29 02:45:15;;;;;;;;;;;;;;;-0.90;100.00;101258.91;103924;1284;60366;-31
2024/01/29 02:47:41;;;;;;;81.40;32.80;;;;;;;-0.86;100.00;101255.89;103920;1299;60984;-29
2024/01/29 02:50:07;;;;;;;77.60;31.80;;;;;;;-29.60;100.00;104756.65;104186;1286;60321;-31
2024/01/29 02:52:32;;;;;;;80.70;31.30;;;;;;;-128.00;-1.00;-1.00;101115;1282;1002797;-32
2024/01/29 02:54:58;;;;;;;85.90;32.40;;;;;;;-128.00;-1.00;-1.00;101193;1282;1012848;-32
2024/01/29 02:57:24;;;;;;;80.60;32.20;;;;;;;-128.00;-1.00;-1.00;101097;1284;1003685;-32
2024/01/29 02:59:50;;;;;;;113.70;43.20;;;;;;;-128.00;-1.00;-1.00;101247;1284;1002814;-32
2024/01/29 03:02:16;;;;;;;115.80;46.50;;;;;;;-128.00;-1.00;-1.00;101059;1283;1002884;-30
2024/01/29 03:04:42;;;;;;;88.50;35.70;;;;;;;-128.00;-1.00;-1.00;101042;1281;1002812;-30
2024/01/29 03:07:07;;;;;;;116.00;43.50;;;;;;;-128.00;-1.00;-1.00;101065;1281;1002960;-32
2024/01/29 03:09:34;;;;;;;96.40;41.60;;;;;;;-128.00;-1.00;-1.00;101225;1282;1005160;-32
2024/01/29 03:11:59;;;;;;;92.50;38.40;;;;;;;-128.00;-1.00;-1.00;101149;1282;1002699;-32
2024/01/29 03:14:25;;;;;;;81.00;34.20;;;;;;;-128.00;-1.00;-1.00;101121;1284;1002521;-33
2024/01/29 03:16:52;;;;;;;73.80;32.30;;;;;;;-128.00;-1.00;-1.00;100938;1282;1002918;-30
2024/01/29 03:19:18;;;;;;;73.60;32.50;;;;;;;-128.00;-1.00;-1.00;101142;1281;1004164;-32
2024/01/29 03:21:44;;;;;;;70.60;29.60;;;;;;;-128.00;-1.00;-1.00;101184;1282;1003418;-32
2024/01/29 03:24:10;;;;;;;;;;;;;;;-128.00;-1.00;-1.00;101129;1283;1003378;-31
2024/01/29 03:26:37;;;;;;;71.90;28.20;;;;;;;-128.00;-1.00;-1.00;101054;1285;1002961;-32
2024/01/29 03:29:02;;;;;;;76.50;30.30;;;;;;;-128.00;-1.00;-1.00;101171;1284;1002712;-33
2024/01/29 03:31:28;;;;;;;78.30;30.90;;;;;;;-128.00;-1.00;-1.00;101117;1282;1004152;-31
2024/01/29 03:33:54;;;;;;;73.70;29.00;;;;;;;-128.00;-1.00;-1.00;101077;1281;1004739;-33
2024/01/29 03:36:19;;;;;;;85.40;33.80;;;;;;;-128.00;-1.00;-1.00;101134;1282;1002505;-31
2024/01/29 03:38:45;;;;;;;81.80;33.80;;;;;;;-128.00;-1.00;-1.00;101123;1284;1003986;-33
2024/01/29 03:41:11;;;;;;;83.90;33.20;;;;;;;-128.00;-1.00;-1.00;101121;1281;1002727;-32
2024/01/29 03:43:36;;;;;;;83.50;34.10;;;;;;;-128.00;-1.00;-1.00;101126;1284;1002270;-30
2024/01/29 03:46:02;;;;;;;78.60;31.90;;;;;;;-128.00;-1.00;-1.00;100965;1286;1002837;-32
2024/01/29 03:48:28;;;;;;;81.20;32.70;;;;;;;-128.00;-1.00;-1.00;101161;1282;1002748;-32
2024/01/29 03:50:54;;;;;;;;;;;;;;;-128.00;-1.00;-1.00;101128;1282;1004104;-31
2024/01/29 03:53:19;;;;;;;85.30;32.80;;;;;;;-128.00;-1.00;-1.00;101221;1281;1003468;-30
2024/01/29 03:55:45;;;;;;;77.60;31.90;;;;;;;-128.00;-1.00;-1.00;101221;1284;1003448;-32
2024/01/29 03:58:11;;;;;;;85.80;33.90;;;;;;;-128.00;-1.00;-1.00;101111;1284;1002854;-28
2024/01/29 04:00:38;;;;;;;74.40;31.40;;;;;;;-128.00;-1.00;-1.00;101060;1283;1003014;-28
2024/01/29 04:03:05;;;;;;;82.80;34.50;;;;;;;-128.00;-1.00;-1.00;101036;1284;1003985;-28
2024/01/29 04:05:31;;;;;;;89.70;34.40;;;;;;;-128.00;-1.00;-1.00;101137;1282;1002891;-28
2024/01/29 04:07:56;;;;;;;98.60;36.60;;;;;;;-128.00;-1.00;-1.00;101149;1282;1003360;-30
2024/01/29 04:10:22;;;;;;;87.50;34.80;;;;;;;-128.00;-1.00;-1.00;101090;1282;1002554;-31
2024/01/29 04:12:48;;;;;;;93.10;36.90;;;;;;;-128.00;-1.00;-1.00;101251;1284;1002637;-30
2024/01/29 04:15:14;;;;;;;88.30;35.20;;;;;;;-128.00;-1.00;-1.00;101093;1283;1004325;-29
2024/01/29 04:17:40;;;;;;;86.20;33.70;;;;;;;-128.00;-1.00;-1.00;101112;1284;1002808;-33
2024/01/29 04:20:06;;;;;;;82.50;34.10;;;;;;;-128.00;-1.00;-1.00;101135;1283;1002316;-29
2024/01/29 04:22:32;;;;;;;80.50;33.30;;;;;;;-128.00;-1.00;-1.00;101146;1281;1002081;-34
2024/01/29 04:25:06;;;;;;;84.90;34.70;;;;;;;-128.00;-1.00;-1.00;101112;1284;1002883;-30
2024/01/29 04:27:32;;;;;;;91.20;35.00;;;;;;;-128.00;-1.00;-1.00;101109;1284;1013105;-30
2024/01/29 04:29:58;;;;;;;78.60;34.40;;;;;;;-128.00;-1.00;-1.00;101088;1282;1002721;-29
2024/01/29 04:32:23;;;;;;;84.20;34.10;;;;;;;-128.00;-1.00;-1.00;101146;1282;1004242;-29
2024/01/29 04:34:49;;;;;;;76.60;32.30;;;;;;;-128.00;-1.00;-1.00;101149;1282;1004724;-31
2024/01/29 04:37:15;;;;;;;84.40;34.00;;;;;;;-128.00;-1.00;-1.00;100960;1285;1003462;-31
2024/01/29 04:39:40;;;;;;;82.50;34.50;;;;;;;-128.00;-1.00;-1.00;101174;1284;1003812;-31
2024/01/29 04:42:07;;;;;;;86.30;34.10;;;;;;;-128.00;-1.00;-1.00;101073;1284;1002644;-29
2024/01/29 04:44:33;;;;;;;75.90;32.20;;;;;;;-128.00;-1.00;-1.00;101257;1282;1004026;-29
2024/01/29 04:46:59;;;;;;;77.90;31.90;;;;;;;-128.00;-1.00;-1.00;101007;1282;1004472;-30
2024/01/29 04:49:24;;;;;;;;;;;;;;;-128.00;-1.00;-1.00;101017;1281;1002610;-32
2024/01/29 04:51:50;;;;;;;77.70;33.50;;;;;;;-128.00;-1.00;-1.00;101112;1281;1003059;-28
2024/01/29 04:54:16;;;;;;;;;;;;;;;-128.00;-1.00;-1.00;101285;1284;1004105;-30
2024/01/29 04:56:41;;;;;;;85.50;32.90;;;;;;;-128.00;-1.00;-1.00;101066;1281;1002481;-30
2024/01/29 04:59:07;;;;;;;74.30;33.30;;;;;;;-128.00;-1.00;-1.00;101081;1282;1003933;-30
2024/01/29 05:01:33;;;;;;;84.10;33.40;;;;;;;-128.00;-1.00;-1.00;101129;1284;1003060;-30
2024/01/29 05:03:58;;;;;;;78.90;31.00;;;;;;;-128.00;-1.00;-1.00;101168;1281;1002164;-30
2024/01/29 05:06:24;;;;;;;70.80;29.80;;;;;;;-128.00;-1.00;-1.00;101092;1283;1004230;-29
2024/01/29 05:08:50;;;;;;;76.80;31.60;;;;;;;-128.00;-1.00;-1.00;101182;1284;1002661;-30
2024/01/29 05:11:15;;;;;;;73.20;32.40;;;;;;;-128.00;-1.00;-1.00;101104;1284;1002420;-30
2024/01/29 05:13:42;;;;;;;88.00;35.40;;;;;;;-128.00;-1.00;-1.00;101112;1282;1003153;-29
2024/01/29 05:16:10;;;;;;;83.10;33.60;;;;;;;-128.00;-1.00;-1.00;101054;1282;1004542;-29
2024/01/29 05:18:36;;;;;;;81.40;33.10;;;;;;;-128.00;-1.00;-1.00;101187;1282;1011948;-30
2024/01/29 05:21:03;;;;;;;90.30;35.00;;;;;;;-128.00;-1.00;-1.00;101147;1281;1002802;-31
2024/01/29 05:23:29;;;;;;;84.50;32.80;;;;;;;-128.00;-1.00;-1.00;101000;1286;1003027;-32
2024/01/29 05:25:55;;;;;;;123.60;51.90;;;;;;;-128.00;-1.00;-1.00;101108;1284;1003855;-29
2024/01/29 05:28:21;;;;;;;127.60;47.80;;;;;;;-128.00;-1.00;-1.00;101106;1283;1003093;-31
2024/01/29 05:30:47;;;;;;;93.20;38.40;;;;;;;-128.00;-1.00;-1.00;101190;1283;1003584;-30
2024/01/29 05:33:13;;;;;;;95.00;35.50;;;;;;;-128.00;-1.00;-1.00;101168;1282;1002472;-30
2024/01/29 05:35:39;;;;;;;82.70;36.40;;;;;;;-128.00;-1.00;-1.00;101167;1281;1002299;-32
2024/01/29 05:38:04;;;;;;;93.20;38.60;;;;;;;-128.00;-1.00;-1.00;101148;1284;1003168;-33
2024/01/29 05:40:30;;;;;;;98.30;39.40;;;;;;;-128.00;-1.00;-1.00;101225;1284;1002885;-32
2024/01/29 05:42:56;;;;;;;82.70;32.40;;;;;;;-128.00;-1.00;-1.00;101122;1282;1003350;-31
2024/01/29 05:45:22;;;;;;;78.50;32.40;;;;;;;-128.00;-1.00;-1.00;101133;1282;1003451;-34
2024/01/29 05:47:48;;;;;;;73.90;31.00;;;;;;;-128.00;-1.00;-1.00;101108;1282;1003468;-30
2024/01/29 05:50:14;;;;;;;81.30;32.30;;;;;;;-128.00;-1.00;-1.00;101244;1282;1003060;-32
2024/01/29 05:52:39;;;;;;;;;;;;;;;-128.00;-1.00;-1.00;101025;1286;1002632;-30
2024/01/29 05:55:05;;;;;;;97.30;35.50;;;;;;;-128.00;-1.00;-1.00;101109;1281;1003766;-32
2024/01/29 05:57:31;;;;;;;81.10;33.60;;;;;;;-128.00;-1.00;-1.00;101144;1282;1002882;-32
2024/01/29 05:59:56;;;;;;;76.40;33.20;;;;;;;-128.00;-1.00;-1.00;101196;1282;1002432;-32
2024/01/29 06:02:22;;;;;;;81.30;32.00;;;;;;;-128.00;-1.00;-1.00;101124;1282;1002666;-32
2024/01/29 06:04:48;;;;;;;;;;;;;;;-128.00;-1.00;-1.00;101180;1282;1002783;-32
2024/01/29 06:07:13;;;;;;;72.50;28.50;;;;;;;-128.00;-1.00;-1.00;101180;1284;1004979;-30
2024/01/29 06:09:40;;;;;;;77.70;30.30;;;;;;;-128.00;-1.00;-1.00;101121;1284;1003203;-31
2024/01/29 06:12:06;;;;;;;66.30;26.30;;;;;;;-128.00;-1.00;-1.00;100941;1285;1003610;-33
2024/01/29 06:14:32;;;;;;;;;;;;;;;-128.00;-1.00;-1.00;101239;1281;1003329;-34
2024/01/29 06:16:58;;;;;;;73.60;27.10;;;;;;;-128.00;-1.00;-1.00;101101;1283;1002272;-30
2024/01/29 06:19:24;;;;;;;74.00;28.70;;;;;;;-128.00;-1.00;-1.00;101069;1282;1002552;-32
2024/01/29 06:21:49;;;;;;;;;;;;;;;-128.00;-1.00;-1.00;101125;1284;1002486;-31
2024/01/29 06:24:15;;;;;;;80.30;27.50;;;;;;;-128.00;-1.00;-1.00;101045;1284;1002706;-33
2024/01/29 06:26:41;;;;;;;68.40;25.10;;;;;;;-128.00;-1.00;-1.00;101027;1282;1004026;-31
2024/01/29 06:29:07;;;;;;;;;;;;;;;-128.00;-1.00;-1.00;101078;1282;1002551;-31
2024/01/29 06:31:32;;;;;;;62.40;22.80;;;;;;;-128.00;-1.00;-1.00;101125;1281;1002916;-31
2024/01/29 06:33:58;;;;;;;65.40;25.40;;;;;;;-128.00;-1.00;-1.00;101249;1282;1003274;-30
2024/01/29 06:36:24;;;;;;;57.90;24.60;;;;;;;-128.00;-1.00;-1.00;101121;1284;1004415;-32
2024/01/29 06:38:49;;;;;;;60.60;24.60;;;;;;;-128.00;-1.00;-1.00;101068;1284;1002651;-30
2024/01/29 06:41:22;;;;;;;56.80;23.10;;;;;;;-128.00;-1.00;-1.00;101053;1282;1002609;-33
2024/01/29 06:43:48;;;;;;;59.10;24.10;;;;;;;-128.00;-1.00;-1.00;101141;1282;1010768;-31
2024/01/29 06:46:14;;;;;;;56.10;23.40;;;;;;;-128.00;-1.00;-1.00;100893;1287;1002696;-32
2024/01/29 06:48:40;;;;;;;58.00;21.90;;;;;;;-128.00;-1.00;-1.00;101198;1282;1002798;-30
2024/01/29 06:51:05;;;;;;;48.80;20.20;;;;;;;-128.00;-1.00;-1.00;101150;1284;1002920;-30
2024/01/29 06:53:34;;;;;;;54.60;24.30;;;;;;;-128.00;-1.00;-1.00;100926;1281;1002870;-30
2024/01/29 06:56:02;;;;;;;58.80;23.10;;;;;;;-128.00;-1.00;-1.00;101014;1281;1006056;-31
2024/01/29 06:58:29;;;;;;;54.10;20.80;;;;;;;-128.00;-1.00;-1.00;101068;1281;1009939;-30
2024/01/29 07:00:55;;;;;;;50.60;20.30;;;;;;;-128.00;-1.00;-1.00;101005;1283;1002418;-30
2024/01/29 07:03:21;;;;;;;49.40;20.90;;;;;;;-128.00;-1.00;-1.00;101058;1281;1003221;-33
2024/01/29 07:05:48;;;;;;;51.60;20.90;;;;;;;-128.00;-1.00;-1.00;101114;1284;1002904;-30
2024/01/29 07:08:13;;;;;;;52.40;21.30;;;;;;;-128.00;-1.00;-1.00;101106;1284;1002713;-30
2024/01/29 07:10:39;;;;;;;55.20;21.60;;;;;;;-128.00;-1.00;-1.00;101304;1282;1004126;-30
2024/01/29 07:13:05;;;;;;;48.50;20.60;;;;;;;-128.00;-1.00;-1.00;101212;1280;1004033;-39
2024/01/29 07:15:30;;;;;;;52.90;21.00;;;;;;;-128.00;-1.00;-1.00;100968;1281;1002717;-34
2024/01/29 07:17:56;;;;;;;44.10;20.00;;;;;;;-128.00;-1.00;-1.00;100978;1282;1002987;-32
2024/01/29 07:20:21;;;;;;;43.80;16.70;;;;;;;-128.00;-1.00;-1.00;101202;1285;1004935;-32
2024/01/29 07:22:47;;;;;;;38.80;17.20;;;;;;;-128.00;-1.00;-1.00;101193;1282;1004225;-29
2024/01/29 07:25:13;;;;;;;43.60;18.20;;;;;;;-128.00;-1.00;-1.00;101129;1282;1002833;-32
2024/01/29 07:27:38;;;;;;;44.70;19.50;;;;;;;-128.00;-1.00;-1.00;101056;1282;1002735;-32
2024/01/29 07:30:05;;;;;;;48.00;20.60;;;;;;;-128.00;-1.00;-1.00;101065;1282;1003246;-30
2024/01/29 07:32:33;;;;;;;48.10;20.20;;;;;;;-128.00;-1.00;-1.00;101169;1281;1003661;-32
2024/01/29 07:35:00;;;;;;;46.40;19.90;;;;;;;-128.00;-1.00;-1.00;101267;1284;1012404;-29
2024/01/29 07:37:27;;;;;;;49.00;21.20;;;;;;;-128.00;-1.00;-1.00;101161;1281;1002728;-30
2024/01/29 07:39:53;;;;;;;44.90;18.90;;;;;;;-128.00;-1.00;-1.00;101101;1282;1004372;-30
2024/01/29 07:42:18;;;;;;;;;;;;;;;-128.00;-1.00;-1.00;101118;1282;1002653;-30
2024/01/29 07:44:44;;;;;;;45.70;21.50;;;;;;;-128.00;-1.00;-1.00;101211;1281;1003553;-31
2024/01/29 07:47:10;;;;;;;38.80;16.80;;;;;;;-128.00;-1.00;-1.00;101149;1282;1003717;-36
2024/01/29 07:49:36;;;;;;;;;;;;;;;-128.00;-1.00;-1.00;101005;1280;1002974;-31
2024/01/29 07:52:02;;;;;;;34.50;15.50;;;;;;;-128.00;-1.00;-1.00;101164;1281;1002754;-33
2024/01/29 07:54:27;;;;;;;;;;;;;;;-128.00;-1.00;-1.00;101034;1282;1002723;-30
2024/01/29 07:56:53;;;;;;;27.20;12.50;;;;;;;-128.00;-1.00;-1.00;101086;1281;1003282;-31
2024/01/29 07:59:19;;;;;;;24.40;12.30;;;;;;;-128.00;-1.00;-1.00;101189;1280;1002858;-30
2024/01/29 08:01:45;;;;;;;24.70;12.20;;;;;;;-128.00;-1.00;-1.00;101116;1282;1002566;-29
2024/01/29 08:04:11;;;;;;;18.10;10.00;;;;;;;-128.00;-1.00;-1.00;101069;1284;1003579;-31
2024/01/29 08:06:37;;;;;;;20.40;10.00;;;;;;;-128.00;-1.00;-1.00;101001;1286;1002680;-31
2024/01/29 08:09:06;;;;;;;19.90;10.10;;;;;;;-128.00;-1.00;-1.00;101133;1281;1002822;-31
2024/01/29 08:11:32;;;;;;;16.10;8.60;;;;;;;-128.00;-1.00;-1.00;101085;1282;1010560;-30
2024/01/29 08:13:58;;;;;;;;;;;;;;;-128.00;-1.00;-1.00;101123;1282;1003398;-30
2024/01/29 08:16:24;;;;;;;17.40;7.90;;;;;;;-128.00;-1.00;-1.00;101150;1282;1002899;-31
2024/01/29 08:18:50;;;;;;;15.40;7.90;;;;;;;-128.00;-1.00;-1.00;101148;1284;1002773;-30
2024/01/29 08:21:17;;;;;;;15.90;7.70;;;;;;;-128.00;-1.00;-1.00;101204;1284;1002847;-32
2024/01/29 08:23:43;;;;;;;19.00;8.70;;;;;;;-128.00;-1.00;-1.00;101168;1281;1002988;-30
2024/01/29 08:26:09;;;;;;;20.00;9.30;;;;;;;-128.00;-1.00;-1.00;101177;1282;1002851;-33
2024/01/29 08:28:34;;;;;;;23.20;11.20;;;;;;;-128.00;-1.00;-1.00;101233;1281;1002610;-31
2024/01/29 08:31:00;;;;;;;20.30;10.10;;;;;;;-128.00;-1.00;-1.00;101082;1280;1002795;-32
2024/01/29 08:33:26;;;;;;;22.10;10.50;;;;;;;-128.00;-1.00;-1.00;101143;1284;1005035;-33
2024/01/29 08:35:52;;;;;;;21.50;9.90;;;;;;;-128.00;-1.00;-1.00;101057;1281;1003567;-33
2024/01/29 08:38:17;;;;;;;19.10;9.70;;;;;;;-128.00;-1.00;-1.00;101099;1282;1002709;-33
2024/01/29 08:40:44;;;;;;;22.50;9.50;;;;;;;-128.00;-1.00;-1.00;101105;1282;1004085;-29
2024/01/29 08:43:10;;;;;;;20.20;10.30;;;;;;;-128.00;-1.00;-1.00;101088;1282;1002903;-31
2024/01/29 08:45:36;;;;;;;21.00;9.50;;;;;;;-128.00;-1.00;-1.00;101072;1282;1005014;-31
2024/01/29 08:48:03;;;;;;;;;;;;;;;-128.00;-1.00;-1.00;101085;1281;1002816;-33
2024/01/29 08:50:30;;;;;;;18.20;9.30;;;;;;;-128.00;-1.00;-1.00;101059;1282;1003666;-34
2024/01/29 08:52:56;;;;;;;17.70;9.20;;;;;;;-128.00;-1.00;-1.00;101273;1282;1002585;-32
2024/01/29 08:55:22;;;;;;;;;;;;;;;-128.00;-1.00;-1.00;101135;1281;1002747;-31
2024/01/29 08:57:48;;;;;;;13.60;7.10;;;;;;;-128.00;-1.00;-1.00;101066;1282;1002958;-30
2024/01/29 09:00:14;;;;;;;16.00;8.10;;;;;;;-128.00;-1.00;-1.00;101117;1282;1002292;-38
2024/01/29 09:02:41;;;;;;;16.20;7.40;;;;;;;-128.00;-1.00;-1.00;101181;1284;1003154;-31
2024/01/29 09:05:08;;;;;;;13.80;7.40;;;;;;;-128.00;-1.00;-1.00;101058;1282;1004857;-30
2024/01/29 09:07:34;;;;;;;16.00;8.10;;;;;;;-128.00;-1.00;-1.00;101156;1280;1003278;-30
2024/01/29 09:10:00;;;;;;;16.80;7.80;;;;;;;-128.00;-1.00;-1.00;101110;1282;1003895;-33
2024/01/29 09:12:25;;;;;;;18.50;7.50;;;;;;;-128.00;-1.00;-1.00;101073;1281;1002945;-32
2024/01/29 09:14:51;;;;;;;21.50;8.60;;;;;;;-128.00;-1.00;-1.00;101076;1282;1004297;-32
2024/01/29 09:17:16;;;;;;;17.40;7.00;;;;;;;-128.00;-1.00;-1.00;101074;1284;1002352;-31
2024/01/29 09:19:45;;;;;;;11.00;5.50;;;;;;;-128.00;-1.00;-1.00;101062;1284;1002711;-31
2024/01/29 09:22:13;;;;;;;14.00;6.90;;;;;;;-128.00;-1.00;-1.00;101077;1281;1006490;-33
2024/01/29 09:24:39;;;;;;;12.90;6.60;;;;;;;-128.00;-1.00;-1.00;101051;1281;1010488;-31
2024/01/29 09:27:05;;;;;;;9.30;5.30;;;;;;;-128.00;-1.00;-1.00;101045;1281;1002590;-31
2024/01/29 09:29:30;;;;;;;10.20;6.00;;;;;;;-128.00;-1.00;-1.00;101147;1281;1002485;-31
2024/01/29 09:31:56;;;;;;;12.90;5.50;;;;;;;-128.00;-1.00;-1.00;101132;1284;1003222;-31
2024/01/29 09:34:24;;;;;;;10.50;5.50;;;;;;;-128.00;-1.00;-1.00;101073;1284;1002552;-31
2024/01/29 09:36:50;;;;;;;11.10;6.00;;;;;;;-128.00;-1.00;-1.00;101111;1282;1005843;-33
2024/01/29 09:39:18;;;;;;;12.00;6.20;;;;;;;-128.00;-1.00;-1.00;101051;1282;1004783;-30
2024/01/29 09:41:43;;;;;;;11.30;5.40;;;;;;;-128.00;-1.00;-1.00;101030;1281;1004535;-32
2024/01/29 09:44:12;;;;;;;11.60;6.00;;;;;;;-128.00;-1.00;-1.00;101042;1284;1002868;-31
2024/01/29 09:46:39;;;;;;;10.30;5.40;;;;;;;-128.00;-1.00;-1.00;101166;1282;1013246;-32
2024/01/29 09:49:05;;;;;;;9.40;6.00;;;;;;;-128.00;-1.00;-1.00;101074;1284;1002694;-31
2024/01/29 09:51:31;;;;;;;15.40;6.50;;;;;;;-128.00;-1.00;-1.00;101069;1282;1002587;-31
2024/01/29 09:53:57;;;;;;;10.50;5.40;;;;;;;-128.00;-1.00;-1.00;101122;1282;1002980;-33
2024/01/29 09:56:23;;;;;;;;;;;;;;;-128.00;-1.00;-1.00;101230;1281;1004302;-33
2024/01/29 09:58:49;;;;;;;12.30;5.10;;;;;;;-128.00;-1.00;-1.00;101081;1281;1002980;-34
2024/01/29 10:01:14;;;;;;;12.60;5.90;;;;;;;-128.00;-1.00;-1.00;101164;1284;1002791;-34
2024/01/29 10:03:41;;;;;;;11.40;6.00;;;;;;;-128.00;-1.00;-1.00;101111;1284;1003199;-32
2024/01/29 10:06:07;;;;;;;11.40;5.80;;;;;;;-128.00;-1.00;-1.00;101198;1284;1002266;-34
2024/01/29 10:08:33;;;;;;;;;;;;;;;-128.00;-1.00;-1.00;101095;1282;1002888;-32
2024/01/29 10:10:59;;;;;;;12.00;5.80;;;;;;;-128.00;-1.00;-1.00;101185;1283;1005227;-32
2024/01/29 10:13:24;;;;;;;9.40;5.60;;;;;;;-128.00;-1.00;-1.00;101021;1282;1002115;-32
2024/01/29 10:15:52;;;;;;;9.80;5.60;;;;;;;-128.00;-1.00;-1.00;101176;1284;1002897;-32
2024/01/29 10:18:17;;;;;;;10.60;5.00;;;;;;;-128.00;-1.00;-1.00;101154;1284;1003763;-31
2024/01/29 10:20:43;;;;;;;8.70;5.40;;;;;;;-128.00;-1.00;-1.00;101132;1281;1004183;-33
2024/01/29 10:23:08;;;;;;;15.10;5.50;;;;;;;-128.00;-1.00;-1.00;101175;1283;1004176;-33
2024/01/29 10:25:38;;;;;;;11.40;5.60;;;;;;;-128.00;-1.00;-1.00;101075;1282;1002858;-32
2024/01/29 10:28:10;;;;;;;10.30;5.20;;;;;;;-128.00;-1.00;-1.00;101166;1282;1013731;-33
2024/01/29 10:30:40;;;;;;;12.30;5.30;;;;;;;-128.00;-1.00;-1.00;101101;1284;1013128;-31
2024/01/29 10:33:06;;;;;;;12.60;5.20;;;;;;;-128.00;-1.00;-1.00;101221;1284;1012528;-36
2024/01/29 10:35:32;;;;;;;8.10;4.90;;;;;;;-128.00;-1.00;-1.00;101176;1281;1002293;-37
2024/01/29 10:38:01;;;;;;;12.60;5.10;;;;;;;-128.00;-1.00;-1.00;101113;1282;1004274;-30
2024/01/29 10:40:27;;;;;;;9.90;4.60;;;;;;;-128.00;-1.00;-1.00;101140;1281;1011281;-32
2024/01/29 10:42:53;;;;;;;;;;;;;;;-128.00;-1.00;-1.00;101076;1282;1002770;-32
2024/01/29 10:45:20;;;;;;;7.50;4.60;;;;;;;-128.00;-1.00;-1.00;101069;1284;1002758;-33
2024/01/29 10:47:50;;;;;;;10.80;5.00;;;;;;;-128.00;-1.00;-1.00;101136;1281;1003929;-33
2024/01/29 10:50:18;;;;;;;9.40;4.80;;;;;;;-128.00;-1.00;-1.00;101064;1281;1006725;-31
2024/01/29 10:52:44;;;;;;;12.00;5.50;;;;;;;-128.00;-1.00;-1.00;101084;1282;1010931;-34
2024/01/29 10:55:10;;;;;;;15.70;7.50;;;;;;;-128.00;-1.00;-1.00;101127;1282;1002571;-34
2024/01/29 10:57:36;;;;;;;;;;;;;;;-128.00;-1.00;-1.00;101226;1282;1003218;-31
2024/01/29 11:00:03;;;;;;;13.40;7.80;;;;;;;-128.00;-1.00;-1.00;101100;1282;1002927;-32
2024/01/29 11:02:29;;;;;;;10.50;5.60;;;;;;;-128.00;-1.00;-1.00;100167;1280;1003085;-34
2024/01/29 11:04:55;;;;;;;49.30;25.20;;;;;;;-128.00;-1.00;-1.00;100434;1282;1003751;-31
2024/01/29 11:07:22;;;;;;;9.80;4.80;;;;;;;-128.00;-1.00;-1.00;100315;1282;1003522;-31
2024/01/29 11:10:11;;;;;;;11.00;4.90;;;;;;;-128.00;-1.00;-1.00;100288;1282;1002777;-31
2024/01/29 11:12:38;;;;;;;12.40;5.90;;;;;;;-128.00;-1.00;-1.00;100357;1282;1060324;-31
2024/01/29 11:15:04;;;;;;;9.50;5.20;;;;;;;-128.00;-1.00;-1.00;100404;1282;1003098;-32
2024/01/29 11:17:30;;;;;;;10.30;5.30;;;;;;;-128.00;-1.00;-1.00;100379;1282;1002327;-31
2024/01/29 11:20:00;;;;;;;13.80;5.10;;;;;;;-128.00;-1.00;-1.00;100334;1282;1002970;-32
2024/01/29 11:22:38;;;;;;;26.00;8.50;;;;;;;-128.00;-1.00;-1.00;100277;1281;1038150;-30
2024/01/29 11:25:07;;;;;;;11.70;5.10;;;;;;;-128.00;-1.00;-1.00;100302;1282;1046890;-32
2024/01/29 11:27:33;;;;;;;35.30;8.60;;;;;;;-128.00;-1.00;-1.00;100272;1282;1060066;-34
2024/01/29 11:30:09;;;;;;;8.10;4.90;;;;;;;-128.00;-1.00;-1.00;100351;1282;1003962;-32
2024/01/29 11:32:36;;;;;;;65.10;33.40;;;;;;;-128.00;-1.00;-1.00;100322;1281;1012690;-32
2024/01/29 11:35:15;;;;;;;25.40;15.20;;;;;;;-128.00;-1.00;-1.00;100377;1284;1002865;-32
2024/01/29 11:37:41;;;;;;;231.30;48.70;;;;;;;-128.00;-1.00;-1.00;100418;1280;1046470;-33
2024/01/29 11:40:34;;;;;;;108.90;21.80;;;;;;;-128.00;-1.00;-1.00;100330;1282;1004449;-31
2024/01/29 11:43:01;;;;;;;14.60;5.20;;;;;;;-128.00;-1.00;-1.00;100374;1282;1055811;-33
2024/01/29 11:45:28;;;;;;;14.80;6.20;;;;;;;-128.00;-1.00;-1.00;100280;1282;1003546;-33